ココス (キーリング) 諸島 の空港の天気 - METARとTAF

ココス島国際空港 ( YPCC / CCK ) - ココス諸島 ココス (キーリング) 諸島
飛行場実況気象(Metar)
観測時間04/21 21:30 CCT (04/21 15:00 UTC)
風向・風速東 11m/s
視程6000m
天気現象
全天の4割程度の雲 雲底高度 370m
全天の8割程度の雲 雲底高度 1190m
全天の8割程度の雲 雲底高度 1460m
気温27℃
湿度89%
気圧1008hPa
METARYPCC 211500Z AUTO 09022KT 6000 // SCT012 BKN039 BKN048 27/25 Q1008
過去の天気等 Google飛行場航空写真 Wunderground天気予報

過去48時間のMETAR

飛行場予報(TAF)
発表時間: 4/21 19:57 CCT (4/21 13:27 UTC)
予報対象時間: 21日19時 CCT ~ 22日18時 CCT
風向・風速東 10m/s
視程8000m
天気現象しゅう雨
全天の4割程度の雲 雲底高度 300m
全天の8割程度の雲 雲底高度 610m
21日19時 CCT ~ 22日18時 CCT に一時的に
風向・風速不定 13m/s 瞬間風速 21m/s
視程1000m
天気現象雷雨
全天の8割程度の雲 雲底高度 150m
少しの積乱雲 雲底高度 610m
TAF AMD YPCC 211327Z 2113/2212 10020KT 8000 SHRA SCT010 BKN020
TEMPO 2113/2212 VRB25G40KT 1000 TSRA BKN005 FEW020CB